Hauptseite
METAR-TAF:

METAR-TAF

Flughäfen :

Flugplatz Reyes

Reyes, Bolivien

Breite: 14-19S, Länge: 067-23W, Höhe: 140 m

Beobachtung

Neuester Wetterbericht von vor 15 Stunden und 16 Minuten, um 20:00 UTC
Wind 3 kt aus Nord/Nordwest
Temperatur 34°C
Luftfeuchtigkeit 41%
Luftdruck 1011 hPa
Sichtweite 10 km oder mehr

METAR: SLRY 212000Z 34003KT 9999 NSC 34/19 Q1011

Zeit: 07:16 (11:16 UTC)


TAF: fehlend

Wetterbeobachtungen und Prognosen von mehr als 4000 Flughäfen (METAR und TAF Bericht).

Die verfügbaren Stationen werden durch gelbe und rote Markierungen auf der Karte dargestellt.

Führen Sie die Maus auf sie, um den Namen der Station zu sehen.

Darauf klicken, um die Beobachtung von Wetterbeobachtungen und Prognosen zu sehen.

Um die Karte zu ändern : klicken Sie auf den grünen Tasten mit einem schwarzen Kreuz Zum Vergrößern, auf den grünen Button mit einem Gedankenstrich zu verkleinern, oder auf die grünen Pfeile für benachbarte Karten.


METAR-TAF: